Osa, Russia
Current Conditions -  °F | °C
As of 2:00 AM on Thursday 27 Nov 2014 (Local Time) from USPP Reporting Station
Clear Clear  
Wind Chill:   Ceiling: Unl
Heat Index: 14°   Visibility: 6mi
Dew Point: 10°   Wind: 4mph
Humidity: 86%   Direction: 20°NNE
Pressure: 30.33"   Gusts: NA
Location:  57.28°N, 55.43°E
Report Text: USPP 262100Z 02002MPS CAVOK M10/M12 Q1027 03290145 NOSIG RMKQFE759/1013
Loading
Personal Weather Stations






























Interactive Weather Map New forecast layout! Learn more

10-Day Weather Forecast

Advertisements
Track Severe Weather on mobile